createdAt,value
2022-08-23T00:02:35.483Z,6.70
2022-08-23T00:07:43.020Z,5.05
2022-08-23T00:12:46.267Z,5.40
2022-08-23T00:17:48.214Z,5.70
2022-08-23T00:22:50.270Z,5.20
2022-08-23T00:27:52.562Z,5.38
2022-08-23T00:32:57.877Z,6.35
2022-08-23T00:38:33.231Z,5.78
2022-08-23T00:43:34.640Z,5.50
2022-08-23T00:48:38.354Z,5.43
2022-08-23T00:53:50.571Z,5.93
2022-08-23T00:58:52.705Z,5.88
2022-08-23T01:04:05.114Z,5.55
2022-08-23T01:09:11.187Z,5.70
2022-08-23T01:14:22.112Z,6.80
2022-08-23T01:19:35.739Z,6.35
2022-08-23T01:25:07.814Z,5.13
2022-08-23T01:30:01.943Z,5.38
2022-08-23T01:35:04.436Z,5.88
2022-08-23T01:40:06.880Z,5.72
2022-08-23T01:45:14.174Z,5.30
2022-08-23T01:50:16.482Z,5.68
2022-08-23T01:55:18.755Z,5.72
2022-08-23T02:00:27.222Z,5.82
2022-08-23T02:05:31.408Z,5.32
2022-08-23T02:10:33.111Z,5.07
2022-08-23T02:15:34.760Z,5.90
2022-08-23T02:20:36.970Z,5.13
2022-08-23T02:25:39.355Z,5.63
2022-08-23T02:30:41.397Z,6.15
2022-08-23T02:35:45.691Z,5.28
2022-08-23T02:40:47.918Z,5.50
2022-08-23T02:45:55.420Z,5.70
2022-08-23T02:51:03.854Z,6.45
2022-08-23T02:56:06.351Z,6.15
2022-08-23T03:01:23.186Z,6.75
2022-08-23T03:06:26.817Z,6.60
2022-08-23T03:11:28.822Z,6.85
2022-08-23T03:16:30.890Z,6.63
2022-08-23T03:21:32.606Z,6.63
2022-08-23T03:26:35.004Z,6.97
2022-08-23T03:31:37.139Z,6.15
2022-08-23T03:36:46.388Z,6.95
2022-08-23T03:41:48.902Z,6.80
2022-08-23T03:46:50.576Z,6.70
2022-08-23T03:51:52.213Z,6.78
2022-08-23T03:57:07.454Z,6.40
2022-08-23T04:02:10.534Z,5.97
2022-08-23T04:07:12.382Z,6.55
2022-08-23T04:12:17.538Z,5.70
2022-08-23T04:17:20.865Z,6.23
2022-08-23T04:22:23.694Z,6.35
2022-08-23T04:27:25.860Z,6.05
2022-08-23T04:32:28.686Z,6.38
2022-08-23T04:37:32.932Z,6.30
2022-08-23T04:42:35.426Z,5.72
2022-08-23T04:47:37.263Z,6.05
2022-08-23T04:52:39.272Z,5.25
2022-08-23T04:57:41.260Z,5.75
2022-08-23T05:02:44.269Z,6.75
2022-08-23T05:07:45.914Z,5.80
2022-08-23T05:12:48.485Z,5.15
2022-08-23T05:17:52.329Z,4.30
2022-08-23T05:22:54.651Z,4.70
2022-08-23T05:28:07.813Z,4.13
2022-08-23T05:33:09.449Z,4.50
2022-08-23T05:38:11.511Z,4.57
2022-08-23T05:43:14.143Z,4.55
2022-08-23T05:48:15.817Z,4.35
2022-08-23T05:53:23.923Z,4.32
2022-08-23T05:58:26.874Z,4.82
2022-08-23T06:03:28.447Z,4.57
2022-08-23T06:08:31.127Z,4.35
2022-08-23T06:13:34.557Z,5.03
2022-08-23T06:18:36.519Z,3.30
2022-08-23T06:23:57.825Z,3.58
2022-08-23T06:29:05.663Z,4.20
2022-08-23T06:34:10.062Z,3.80
2022-08-23T06:39:36.773Z,3.88
2022-08-23T06:44:57.964Z,4.00
2022-08-23T06:50:11.900Z,4.05
2022-08-23T06:55:32.036Z,3.55
2022-08-23T07:01:48.719Z,4.07
2022-08-23T07:07:11.129Z,4.45
2022-08-23T07:12:13.476Z,3.30
2022-08-23T07:17:17.564Z,2.80
2022-08-23T07:22:19.748Z,2.65
2022-08-23T07:27:21.351Z,2.55
2022-08-23T07:32:33.167Z,2.85
2022-08-23T07:37:45.085Z,3.85
2022-08-23T07:42:47.774Z,2.97
2022-08-23T07:47:50.649Z,3.67
2022-08-23T07:52:53.246Z,3.08
2022-08-23T07:57:55.073Z,3.55
2022-08-23T08:03:12.495Z,3.47
2022-08-23T08:08:37.137Z,3.85
2022-08-23T08:13:41.082Z,3.63
2022-08-23T08:18:44.228Z,3.42
2022-08-23T08:24:07.621Z,3.95
2022-08-23T08:29:18.142Z,3.42
2022-08-23T08:34:20.678Z,3.17
2022-08-23T08:39:26.258Z,4.32
2022-08-23T08:44:37.179Z,3.53
2022-08-23T08:49:48.742Z,4.07
2022-08-23T08:55:12.357Z,3.42
2022-08-23T09:00:26.196Z,4.40
2022-08-23T09:05:33.280Z,3.60
2022-08-23T09:10:45.865Z,3.17
2022-08-23T09:16:03.170Z,3.20
2022-08-23T09:21:08.138Z,3.80
2022-08-23T09:26:36.442Z,4.10
2022-08-23T09:31:38.166Z,3.55
2022-08-23T09:36:39.986Z,3.33
2022-08-23T09:41:41.866Z,3.72
2022-08-23T09:46:45.035Z,3.40
2022-08-23T09:51:54.162Z,3.50
2022-08-23T09:57:09.102Z,3.35
2022-08-23T10:02:30.098Z,3.28
2022-08-23T10:07:43.854Z,3.53
2022-08-23T10:12:50.662Z,3.58
2022-08-23T10:18:34.037Z,3.28
2022-08-23T10:24:05.617Z,3.03
2022-08-23T10:29:35.731Z,2.97
2022-08-23T10:35:16.012Z,2.65
2022-08-23T10:40:25.621Z,3.28
2022-08-23T10:45:33.091Z,2.90
2022-08-23T10:51:01.842Z,2.60
2022-08-23T10:56:04.787Z,2.78
2022-08-23T11:01:15.851Z,3.03
2022-08-23T11:06:27.562Z,2.42
2022-08-23T11:11:58.861Z,2.28
2022-08-23T11:17:25.269Z,2.47
2022-08-23T11:22:31.229Z,2.38
2022-08-23T11:27:43.301Z,2.22
2022-08-23T11:32:49.759Z,2.47
2022-08-23T11:37:56.470Z,2.60
2022-08-23T11:43:07.409Z,2.00
2022-08-23T11:48:36.179Z,2.40
2022-08-23T11:53:40.656Z,2.10
2022-08-23T11:59:14.477Z,2.45
2022-08-23T12:04:47.901Z,2.42
2022-08-23T12:09:52.085Z,2.30
2022-08-23T12:14:57.553Z,2.47
2022-08-23T12:19:59.109Z,2.28
2022-08-23T12:25:06.013Z,2.50
2022-08-23T12:30:29.033Z,2.30
2022-08-23T12:35:49.307Z,3.03
2022-08-23T12:40:54.446Z,2.28
2022-08-23T12:45:58.103Z,2.38
2022-08-23T12:56:32.009Z,2.60
2022-08-23T13:01:37.539Z,2.00
2022-08-23T13:07:02.744Z,2.03
2022-08-23T13:12:07.329Z,2.30
2022-08-23T13:17:27.281Z,1.90
2022-08-23T13:22:31.040Z,2.00
2022-08-23T13:27:44.915Z,1.60
2022-08-23T13:33:07.858Z,2.05
2022-08-23T13:38:20.521Z,2.35
2022-08-23T13:43:49.760Z,2.28
2022-08-23T13:49:00.936Z,2.13
2022-08-23T13:54:06.135Z,1.95
2022-08-23T13:59:31.338Z,1.83
2022-08-23T14:04:34.585Z,2.05
2022-08-23T14:09:37.804Z,1.98
2022-08-23T14:14:40.660Z,1.83
2022-08-23T14:25:05.949Z,2.03
2022-08-23T14:30:10.588Z,1.83
2022-08-23T14:35:12.218Z,1.73
2022-08-23T14:40:14.872Z,2.03
2022-08-23T14:45:18.185Z,2.13
2022-08-23T14:50:19.864Z,1.90
2022-08-23T14:55:24.838Z,1.77
2022-08-23T15:00:26.787Z,1.88
2022-08-23T15:05:29.149Z,1.98
2022-08-23T15:15:53.468Z,2.13
2022-08-23T15:20:55.123Z,2.20
2022-08-23T15:25:56.828Z,1.70
2022-08-23T15:30:58.510Z,2.55
2022-08-23T15:36:00.593Z,2.40
2022-08-23T15:41:03.491Z,1.83
2022-08-23T15:46:07.441Z,2.30
2022-08-23T15:51:10.289Z,1.77
2022-08-23T15:56:18.552Z,1.98
2022-08-23T16:01:23.990Z,1.98
2022-08-23T16:06:27.396Z,1.75
2022-08-23T16:11:28.981Z,1.77
2022-08-23T16:16:36.604Z,1.30
2022-08-23T16:21:39.044Z,1.95
2022-08-23T16:26:45.303Z,1.70
2022-08-23T16:31:47.677Z,1.90
2022-08-23T16:36:55.685Z,1.63
2022-08-23T16:41:57.314Z,1.63
2022-08-23T16:46:59.677Z,1.98
2022-08-23T16:52:02.183Z,1.70
2022-08-23T16:57:04.288Z,1.80
2022-08-23T17:02:10.930Z,2.65
2022-08-23T17:07:12.829Z,1.92
2022-08-23T17:12:15.217Z,1.80
2022-08-23T17:17:17.063Z,1.80
2022-08-23T17:22:18.970Z,2.42
2022-08-23T17:27:20.579Z,1.75
2022-08-23T17:32:22.573Z,1.60
2022-08-23T17:37:24.166Z,1.90
2022-08-23T17:42:26.031Z,1.70
2022-08-23T17:47:27.568Z,1.67
2022-08-23T17:52:29.961Z,2.10
2022-08-23T17:57:32.391Z,2.03
2022-08-23T18:02:34.175Z,2.08
2022-08-23T18:07:36.216Z,1.80
2022-08-23T18:12:40.933Z,1.67
2022-08-23T18:17:42.770Z,1.60
2022-08-23T18:22:44.489Z,1.42
2022-08-23T18:27:46.203Z,1.90
2022-08-23T18:32:47.797Z,1.55
2022-08-23T18:37:51.846Z,1.83
2022-08-23T18:42:54.319Z,1.65
2022-08-23T18:47:55.928Z,1.42
2022-08-23T18:52:57.588Z,2.20
2022-08-23T18:57:59.267Z,2.00
2022-08-23T19:03:03.252Z,1.67
2022-08-23T19:08:05.364Z,1.88
2022-08-23T19:13:07.873Z,2.10
2022-08-23T19:23:14.130Z,2.00
2022-08-23T19:28:16.460Z,1.98
2022-08-23T19:33:19.245Z,2.15
2022-08-23T19:38:20.813Z,1.50
2022-08-23T19:43:22.961Z,2.20
2022-08-23T19:48:24.632Z,2.65
2022-08-23T19:53:26.291Z,1.77
2022-08-23T19:58:27.962Z,2.10
2022-08-23T20:03:29.525Z,1.85
2022-08-23T20:08:31.085Z,2.05
2022-08-23T20:13:32.657Z,2.80
2022-08-23T20:18:34.283Z,2.28
2022-08-23T20:23:36.041Z,2.63
2022-08-23T20:28:37.631Z,2.20
2022-08-23T20:33:41.375Z,1.85
2022-08-23T20:38:47.072Z,2.40
2022-08-23T20:43:48.712Z,2.50
2022-08-23T20:48:51.614Z,2.60
2022-08-23T20:53:53.707Z,2.40
2022-08-23T20:58:57.561Z,3.42
2022-08-23T21:04:00.021Z,3.45
2022-08-23T21:09:01.606Z,2.60
2022-08-23T21:14:04.636Z,1.90
2022-08-23T21:19:06.617Z,2.67
2022-08-23T21:24:10.095Z,2.63
2022-08-23T21:29:11.747Z,3.30
2022-08-23T21:34:13.336Z,5.35
2022-08-23T21:39:14.929Z,3.50
2022-08-23T21:44:19.715Z,2.33
2022-08-23T21:49:21.405Z,3.63
2022-08-23T21:54:23.172Z,4.35
2022-08-23T21:59:24.858Z,4.40
2022-08-23T22:04:26.539Z,2.63
2022-08-23T22:09:31.576Z,2.67
2022-08-23T22:14:33.870Z,2.10
2022-08-23T22:19:35.596Z,2.42
2022-08-23T22:24:37.813Z,3.40
2022-08-23T22:29:39.868Z,2.33
2022-08-23T22:34:44.352Z,3.22
2022-08-23T22:39:46.209Z,3.25
2022-08-23T22:44:47.873Z,2.92
2022-08-23T22:49:49.467Z,3.30
2022-08-23T22:54:51.107Z,3.28
2022-08-23T22:59:52.777Z,3.08
2022-08-23T23:04:56.707Z,2.60
2022-08-23T23:09:58.361Z,2.55
2022-08-23T23:15:00.032Z,2.22
2022-08-23T23:20:02.253Z,2.90
2022-08-23T23:25:04.304Z,3.38
2022-08-23T23:30:06.469Z,3.10
2022-08-23T23:35:09.289Z,2.85
2022-08-23T23:40:12.114Z,2.70
2022-08-23T23:45:15.407Z,3.95
2022-08-23T23:50:17.951Z,3.47
2022-08-23T23:55:21.540Z,2.80
